createdAt,value
2018-12-19T00:01:25.787Z,100417.31
2018-12-19T00:03:55.430Z,100414.86
2018-12-19T00:06:25.083Z,100404.14
2018-12-19T00:08:54.689Z,100401.30
2018-12-19T00:11:24.371Z,100401.01
2018-12-19T00:13:54.068Z,100396.66
2018-12-19T00:16:23.588Z,100397.47
2018-12-19T00:18:53.170Z,100386.88
2018-12-19T00:21:22.903Z,100389.39
2018-12-19T00:23:52.645Z,100386.23
2018-12-19T00:26:22.202Z,100383.78
2018-12-19T00:28:51.895Z,100387.22
2018-12-19T00:31:21.590Z,100385.58
2018-12-19T00:33:51.275Z,100384.37
2018-12-19T00:36:20.835Z,100376.70
2018-12-19T00:38:50.447Z,100377.36
2018-12-19T00:41:20.036Z,100369.52
2018-12-19T00:43:49.613Z,100378.67
2018-12-19T00:46:19.156Z,100367.62
2018-12-19T00:48:48.735Z,100369.34
2018-12-19T00:51:18.433Z,100369.48
2018-12-19T00:53:48.012Z,100366.31
2018-12-19T00:56:17.640Z,100361.55
2018-12-19T00:58:47.233Z,100361.81
2018-12-19T01:01:16.807Z,100359.30
2018-12-19T01:03:46.725Z,100355.44
2018-12-19T01:06:16.525Z,100358.30
2018-12-19T01:08:46.187Z,100358.17
2018-12-19T01:11:15.762Z,100354.00
2018-12-19T01:13:45.376Z,100357.82
2018-12-19T01:16:14.948Z,100357.04
2018-12-19T01:18:50.076Z,100352.02
2018-12-19T01:21:19.712Z,100351.16
2018-12-19T01:23:49.255Z,100348.52
2018-12-19T01:26:18.889Z,100342.23
2018-12-19T01:28:48.480Z,100336.72
2018-12-19T01:31:18.084Z,100332.78
2018-12-19T01:33:47.634Z,100326.14
2018-12-19T01:36:17.229Z,100325.45
2018-12-19T01:38:47.076Z,100324.11
2018-12-19T01:41:16.597Z,100326.97
2018-12-19T01:43:47.104Z,100317.43
2018-12-19T01:46:16.819Z,100320.69
2018-12-19T01:48:46.560Z,100315.88
2018-12-19T01:51:16.150Z,100323.55
2018-12-19T01:53:45.984Z,100322.88
2018-12-19T01:56:16.016Z,100320.27
2018-12-19T01:58:45.705Z,100310.78
2018-12-19T02:01:15.357Z,100305.88
2018-12-19T02:03:45.348Z,100311.13
2018-12-19T02:06:15.773Z,100311.55
2018-12-19T02:08:45.296Z,100321.61
2018-12-19T02:11:14.909Z,100317.52
2018-12-19T02:13:44.679Z,100317.88
2018-12-19T02:16:14.306Z,100315.25
2018-12-19T02:18:43.823Z,100307.27
2018-12-19T02:21:13.335Z,100300.16
2018-12-19T02:23:48.319Z,100303.70
2018-12-19T02:26:17.994Z,100296.12
2018-12-19T02:28:47.606Z,100297.72
2018-12-19T02:31:17.545Z,100302.45
2018-12-19T02:33:47.709Z,100293.38
2018-12-19T02:36:17.485Z,100299.03
2018-12-19T02:38:47.002Z,100293.33
2018-12-19T02:41:16.558Z,100290.00
2018-12-19T02:43:46.129Z,100289.44
2018-12-19T02:46:15.872Z,100288.47
2018-12-19T02:48:45.350Z,100288.63
2018-12-19T02:51:14.925Z,100287.36
2018-12-19T02:53:44.526Z,100287.95
2018-12-19T02:56:14.054Z,100292.08
2018-12-19T02:58:43.607Z,100290.00
2018-12-19T03:01:13.145Z,100287.23
2018-12-19T03:03:42.892Z,100281.80
2018-12-19T03:06:12.490Z,100278.27
2018-12-19T03:08:42.381Z,100274.92
2018-12-19T03:11:12.684Z,100273.50
2018-12-19T03:13:42.483Z,100275.39
2018-12-19T03:16:12.087Z,100277.98
2018-12-19T03:18:41.681Z,100270.95
2018-12-19T03:21:11.265Z,100271.16
2018-12-19T03:23:40.781Z,100261.84
2018-12-19T03:26:10.326Z,100258.99
2018-12-19T03:28:39.913Z,100255.10
2018-12-19T03:31:09.454Z,100256.27
2018-12-19T03:33:39.192Z,100256.93
2018-12-19T03:36:08.879Z,100249.17
2018-12-19T03:38:38.481Z,100245.90
2018-12-19T03:41:08.039Z,100239.88
2018-12-19T03:43:37.660Z,100236.09
2018-12-19T03:46:07.256Z,100241.98
2018-12-19T03:48:41.963Z,100235.50
2018-12-19T03:51:11.659Z,100232.71
2018-12-19T03:53:41.711Z,100230.56
2018-12-19T03:56:11.340Z,100223.90
2018-12-19T03:58:41.036Z,100216.66
2018-12-19T04:01:10.742Z,100209.30
2018-12-19T04:03:40.351Z,100200.51
2018-12-19T04:06:09.987Z,100206.42
2018-12-19T04:08:39.771Z,100205.66
2018-12-19T04:11:09.408Z,100208.36
2018-12-19T04:13:39.090Z,100208.34
2018-12-19T04:16:08.720Z,100205.09
2018-12-19T04:18:38.335Z,100210.84
2018-12-19T04:21:07.957Z,100221.03
2018-12-19T04:23:37.507Z,100231.33
2018-12-19T04:26:07.097Z,100224.41
2018-12-19T04:28:36.609Z,100220.30
2018-12-19T04:31:06.251Z,100220.05
2018-12-19T04:33:35.753Z,100215.38
2018-12-19T04:36:05.729Z,100218.09
2018-12-19T04:38:35.516Z,100220.30
2018-12-19T04:41:05.196Z,100207.73
2018-12-19T04:43:34.703Z,100196.96
2018-12-19T04:46:04.422Z,100190.12
2018-12-19T04:48:33.982Z,100196.39
2018-12-19T04:51:03.527Z,100205.16
2018-12-19T04:53:33.246Z,100214.28
2018-12-19T04:56:02.908Z,100216.29
2018-12-19T04:58:32.549Z,100204.30
2018-12-19T05:01:02.114Z,100199.50
2018-12-19T05:03:37.323Z,100214.17
2018-12-19T05:06:06.908Z,100213.53
2018-12-19T05:08:36.424Z,100215.03
2018-12-19T05:11:05.937Z,100208.00
2018-12-19T05:13:35.465Z,100214.69
2018-12-19T05:16:05.165Z,100212.36
2018-12-19T05:18:35.671Z,100214.29
2018-12-19T05:21:05.571Z,100212.88
2018-12-19T05:23:35.298Z,100195.82
2018-12-19T05:26:04.824Z,100196.17
2018-12-19T05:28:34.531Z,100185.44
2018-12-19T05:31:04.043Z,100182.16
2018-12-19T05:33:33.636Z,100179.06
2018-12-19T05:36:03.273Z,100180.44
2018-12-19T05:38:33.798Z,100172.98
2018-12-19T05:41:03.452Z,100167.20
2018-12-19T05:43:32.999Z,100164.91
2018-12-19T05:46:02.603Z,100163.21
2018-12-19T05:48:32.124Z,100170.52
2018-12-19T05:51:01.710Z,100164.37
2018-12-19T05:53:31.248Z,100158.15
2018-12-19T05:56:00.878Z,100167.28
2018-12-19T05:58:30.573Z,100158.69
2018-12-19T06:01:00.231Z,100165.20
2018-12-19T06:03:29.866Z,100175.05
2018-12-19T06:05:59.462Z,100169.91
2018-12-19T06:08:29.094Z,100174.47
2018-12-19T06:10:58.679Z,100174.72
2018-12-19T06:13:28.494Z,100162.14
2018-12-19T06:15:58.636Z,100163.83
2018-12-19T06:18:34.149Z,100166.34
2018-12-19T06:21:03.768Z,100167.17
2018-12-19T06:23:33.381Z,100160.56
2018-12-19T06:26:02.877Z,100159.37
2018-12-19T06:28:32.432Z,100153.44
2018-12-19T06:31:02.221Z,100139.44
2018-12-19T06:33:32.698Z,100138.66
2018-12-19T06:36:02.376Z,100128.37
2018-12-19T06:38:31.902Z,100133.39
2018-12-19T06:41:01.551Z,100133.56
2018-12-19T06:43:31.078Z,100127.49
2018-12-19T06:46:00.743Z,100137.88
2018-12-19T06:48:30.276Z,100134.72
2018-12-19T06:50:59.776Z,100142.60
2018-12-19T06:53:29.301Z,100140.84
2018-12-19T06:55:58.860Z,100147.78
2018-12-19T06:58:28.423Z,100156.31
2018-12-19T07:00:58.077Z,100150.41
2018-12-19T07:03:27.631Z,100148.18
2018-12-19T07:05:57.907Z,100155.84
2018-12-19T07:08:27.529Z,100159.28
2018-12-19T07:10:57.162Z,100158.53
2018-12-19T07:13:26.869Z,100154.84
2018-12-19T07:15:56.629Z,100156.51
2018-12-19T07:18:27.212Z,100163.16
2018-12-19T07:20:57.595Z,100151.54
2018-12-19T07:23:27.063Z,100153.45
2018-12-19T07:25:57.106Z,100155.71
2018-12-19T07:28:26.785Z,100152.61
2018-12-19T07:30:57.372Z,100146.70
2018-12-19T07:33:27.015Z,100149.73
2018-12-19T07:35:56.581Z,100155.30
2018-12-19T07:38:26.312Z,100155.59
2018-12-19T07:40:58.516Z,100145.19
2018-12-19T07:43:36.319Z,100140.75
2018-12-19T07:46:06.068Z,100146.15
2018-12-19T07:48:35.930Z,100147.84
2018-12-19T07:51:05.433Z,100138.19
2018-12-19T07:53:34.950Z,100135.66
2018-12-19T07:56:04.469Z,100136.82
2018-12-19T07:58:34.021Z,100142.88
2018-12-19T08:01:03.639Z,100140.53
2018-12-19T08:03:33.139Z,100140.55
2018-12-19T08:06:03.026Z,100133.55
2018-12-19T08:08:33.363Z,100139.30
2018-12-19T08:11:03.225Z,100151.91
2018-12-19T08:13:32.741Z,100144.10
2018-12-19T08:16:02.309Z,100147.14
2018-12-19T08:18:32.006Z,100147.02
2018-12-19T08:21:01.492Z,100144.95
2018-12-19T08:23:31.126Z,100144.21
2018-12-19T08:26:00.616Z,100137.47
2018-12-19T08:28:30.472Z,100142.66
2018-12-19T08:30:59.992Z,100130.19
2018-12-19T08:33:29.760Z,100136.13
2018-12-19T08:35:59.396Z,100134.58
2018-12-19T08:38:31.211Z,100135.30
2018-12-19T08:41:02.793Z,100136.90
2018-12-19T08:43:32.582Z,100134.11
2018-12-19T08:46:02.656Z,100122.98
2018-12-19T08:48:32.248Z,100129.17
2018-12-19T08:51:01.786Z,100124.98
2018-12-19T08:53:31.577Z,100141.08
2018-12-19T08:56:01.240Z,100139.03
2018-12-19T08:58:30.764Z,100145.29
2018-12-19T09:01:00.287Z,100141.72
2018-12-19T09:03:29.919Z,100150.72
2018-12-19T09:05:59.459Z,100130.58
2018-12-19T09:08:29.014Z,100140.41
2018-12-19T09:11:05.463Z,100136.67
2018-12-19T09:13:30.451Z,100132.17
2018-12-19T09:15:59.935Z,100137.41
2018-12-19T09:18:29.421Z,100127.90
2018-12-19T09:20:59.143Z,100131.33
2018-12-19T09:23:28.623Z,100132.65
2018-12-19T09:25:58.465Z,100123.61
2018-12-19T09:28:27.979Z,100124.37
2018-12-19T09:30:57.658Z,100116.50
2018-12-19T09:33:27.650Z,100112.34
2018-12-19T09:35:57.503Z,100116.19
2018-12-19T09:38:27.015Z,100122.98
2018-12-19T09:40:56.615Z,100133.31
2018-12-19T09:43:26.154Z,100133.88
2018-12-19T09:45:55.751Z,100138.74
2018-12-19T09:48:25.234Z,100127.75
2018-12-19T09:50:54.681Z,100126.85
2018-12-19T09:53:24.716Z,100122.72
2018-12-19T09:55:54.405Z,100128.03
2018-12-19T09:58:24.097Z,100123.59
2018-12-19T10:00:54.013Z,100107.64
2018-12-19T10:03:23.508Z,100105.53
2018-12-19T10:05:53.280Z,100106.38
2018-12-19T10:08:22.871Z,100099.66
2018-12-19T10:10:52.460Z,100087.42
2018-12-19T10:13:22.452Z,100090.92
2018-12-19T10:15:52.063Z,100094.52
2018-12-19T10:18:21.695Z,100098.86
2018-12-19T10:20:51.160Z,100097.06
2018-12-19T10:23:20.809Z,100094.98
2018-12-19T10:25:54.426Z,100096.38
2018-12-19T10:28:29.020Z,100088.67
2018-12-19T10:30:58.952Z,100081.59
2018-12-19T10:33:29.360Z,100081.64
2018-12-19T10:35:58.981Z,100097.80
2018-12-19T10:38:28.429Z,100102.86
2018-12-19T10:40:57.967Z,100083.86
2018-12-19T10:43:27.703Z,100087.04
2018-12-19T10:45:57.211Z,100077.45
2018-12-19T10:48:26.686Z,100075.77
2018-12-19T10:50:56.157Z,100072.95
2018-12-19T10:53:25.746Z,100078.82
2018-12-19T10:55:55.260Z,100079.77
2018-12-19T10:58:24.871Z,100078.31
2018-12-19T11:01:00.573Z,100081.31
2018-12-19T11:03:30.190Z,100084.83
2018-12-19T11:06:00.002Z,100075.45
2018-12-19T11:08:29.584Z,100089.08
2018-12-19T11:10:59.263Z,100081.70
2018-12-19T11:13:29.375Z,100084.12
2018-12-19T11:15:59.140Z,100077.44
2018-12-19T11:18:28.657Z,100075.73
2018-12-19T11:20:58.555Z,100071.52
2018-12-19T11:23:28.125Z,100064.53
2018-12-19T11:25:57.847Z,100065.64
2018-12-19T11:28:27.391Z,100068.17
2018-12-19T11:30:56.934Z,100072.03
2018-12-19T11:33:26.530Z,100065.41
2018-12-19T11:35:56.073Z,100078.38
2018-12-19T11:38:25.543Z,100064.34
2018-12-19T11:40:55.076Z,100059.27
2018-12-19T11:43:24.525Z,100071.18
2018-12-19T11:45:54.043Z,100061.40
2018-12-19T11:48:23.674Z,100060.36
2018-12-19T11:50:53.241Z,100062.03
2018-12-19T11:53:22.815Z,100057.99
2018-12-19T11:55:52.279Z,100053.05
2018-12-19T11:58:21.935Z,100047.22
2018-12-19T12:00:51.536Z,100058.30
2018-12-19T12:03:20.995Z,100056.49
2018-12-19T12:05:50.716Z,100045.57
2018-12-19T12:08:21.073Z,100052.77
2018-12-19T12:10:50.602Z,100049.66
2018-12-19T12:13:20.074Z,100031.97
2018-12-19T12:15:49.767Z,100037.33
2018-12-19T12:18:19.251Z,100046.12
2018-12-19T12:20:48.788Z,100035.54
2018-12-19T12:23:18.439Z,100032.09
2018-12-19T12:25:48.060Z,100028.88
2018-12-19T12:28:17.608Z,100023.73
2018-12-19T12:30:47.156Z,100026.90
2018-12-19T12:33:16.722Z,100034.23
2018-12-19T12:35:46.586Z,100030.18
2018-12-19T12:38:16.357Z,100036.57
2018-12-19T12:40:45.941Z,100029.61
2018-12-19T12:43:15.528Z,100037.45
2018-12-19T12:45:45.004Z,100042.84
2018-12-19T12:48:14.537Z,100027.84
2018-12-19T12:50:44.020Z,100035.02
2018-12-19T12:53:14.008Z,100037.37
2018-12-19T12:55:43.543Z,100037.83
2018-12-19T12:58:13.281Z,100032.25
2018-12-19T13:00:42.833Z,100021.54
2018-12-19T13:03:12.266Z,100026.52
2018-12-19T13:05:41.911Z,100028.60
2018-12-19T13:08:11.419Z,100019.74
2018-12-19T13:10:40.889Z,100017.56
2018-12-19T13:13:10.433Z,100024.87
2018-12-19T13:15:44.009Z,100012.09
2018-12-19T13:18:14.677Z,100012.69
2018-12-19T13:20:44.659Z,100009.36
2018-12-19T13:23:15.348Z,100014.03
2018-12-19T13:25:45.351Z,100018.36
2018-12-19T13:28:15.006Z,100009.83
2018-12-19T13:30:44.516Z,100020.58
2018-12-19T13:33:14.068Z,100018.58
2018-12-19T13:35:43.840Z,100023.87
2018-12-19T13:38:13.425Z,100017.83
2018-12-19T13:40:44.774Z,100014.11
2018-12-19T13:43:14.283Z,100022.09
2018-12-19T13:45:44.691Z,100008.78
2018-12-19T13:48:15.178Z,100012.31
2018-12-19T13:50:44.657Z,100018.50
2018-12-19T13:53:14.287Z,100009.64
2018-12-19T13:55:43.819Z,100016.09
2018-12-19T13:58:13.295Z,100011.58
2018-12-19T14:00:42.758Z,100011.11
2018-12-19T14:03:12.375Z,100013.44
2018-12-19T14:05:41.883Z,100013.25
2018-12-19T14:08:11.497Z,100004.72
2018-12-19T14:10:41.158Z,100004.02
2018-12-19T14:13:10.804Z,100005.23
2018-12-19T14:15:40.412Z,100004.20
2018-12-19T14:18:10.569Z,100013.39
2018-12-19T14:20:41.591Z,100009.86
2018-12-19T14:23:12.012Z,100003.52
2018-12-19T14:25:41.601Z,100004.72
2018-12-19T14:28:11.203Z,99999.52
2018-12-19T14:30:40.931Z,100003.07
2018-12-19T14:33:10.544Z,99995.89
2018-12-19T14:35:40.735Z,99995.69
2018-12-19T14:38:10.318Z,99987.77
2018-12-19T14:40:40.360Z,99991.64
2018-12-19T14:43:09.974Z,99985.17
2018-12-19T14:45:39.570Z,99995.53
2018-12-19T14:48:10.880Z,99998.05
2018-12-19T14:50:40.707Z,100006.91
2018-12-19T14:53:10.279Z,100012.11
2018-12-19T14:55:40.184Z,100004.53
2018-12-19T14:58:12.703Z,99999.20
2018-12-19T15:00:42.159Z,99994.00
2018-12-19T15:03:11.975Z,100005.83
2018-12-19T15:05:41.431Z,100007.47
2018-12-19T15:08:10.942Z,99993.08
2018-12-19T15:10:42.064Z,100001.88
2018-12-19T15:13:11.569Z,99997.56
2018-12-19T15:15:43.162Z,100002.34
2018-12-19T15:18:12.668Z,99997.91
2018-12-19T15:20:42.648Z,100001.85
2018-12-19T15:23:16.396Z,99999.36
2018-12-19T15:25:46.140Z,99996.41
2018-12-19T15:28:15.682Z,99999.94
2018-12-19T15:30:45.663Z,99999.05
2018-12-19T15:33:15.184Z,99993.09
2018-12-19T15:35:45.537Z,99999.17
2018-12-19T15:38:15.081Z,99991.48
2018-12-19T15:40:45.808Z,99999.14
2018-12-19T15:43:15.268Z,99999.05
2018-12-19T15:45:44.761Z,99996.72
2018-12-19T15:48:14.356Z,100000.11
2018-12-19T15:50:44.827Z,99991.57
2018-12-19T15:53:15.006Z,99996.08
2018-12-19T15:55:44.572Z,99985.69
2018-12-19T15:58:14.072Z,99985.75
2018-12-19T16:00:43.553Z,99981.42
2018-12-19T16:03:13.217Z,99974.63
2018-12-19T16:05:42.691Z,99981.62
2018-12-19T16:08:12.252Z,99976.35
2018-12-19T16:10:41.748Z,99982.17
2018-12-19T16:13:11.226Z,99980.08
2018-12-19T16:15:40.932Z,99975.44
2018-12-19T16:18:10.412Z,99987.70
2018-12-19T16:20:40.083Z,99990.45
2018-12-19T16:23:09.827Z,99983.96
2018-12-19T16:25:39.391Z,99981.84
2018-12-19T16:28:08.860Z,99989.98
2018-12-19T16:30:38.318Z,99985.64
2018-12-19T16:33:08.089Z,99985.56
2018-12-19T16:35:37.588Z,99986.56
2018-12-19T16:38:07.051Z,99980.75
2018-12-19T16:40:36.573Z,99980.32
2018-12-19T16:43:06.791Z,99980.17
2018-12-19T16:45:36.248Z,99982.21
2018-12-19T16:48:05.748Z,99979.86
2018-12-19T16:50:35.204Z,99989.14
2018-12-19T16:53:04.758Z,99987.58
2018-12-19T16:55:34.438Z,99987.25
2018-12-19T16:58:03.960Z,99983.36
2018-12-19T17:00:33.463Z,99986.19
2018-12-19T17:03:02.843Z,99971.30
2018-12-19T17:05:32.528Z,99971.41
2018-12-19T17:08:02.006Z,99970.45
2018-12-19T17:10:31.464Z,99972.58
2018-12-19T17:13:01.017Z,99975.41
2018-12-19T17:15:38.067Z,99971.94
2018-12-19T17:18:07.764Z,99964.30
2018-12-19T17:20:37.177Z,99959.94
2018-12-19T17:23:06.711Z,99959.92
2018-12-19T17:25:36.075Z,99955.10
2018-12-19T17:28:05.446Z,99954.78
2018-12-19T17:30:34.979Z,99942.47
2018-12-19T17:33:04.403Z,99944.97
2018-12-19T17:35:33.776Z,99933.66
2018-12-19T17:38:03.096Z,99936.66
2018-12-19T17:40:32.579Z,99927.73
2018-12-19T17:43:02.143Z,99927.27
2018-12-19T17:45:31.510Z,99931.53
2018-12-19T17:48:01.049Z,99915.47
2018-12-19T17:50:30.446Z,99911.26
2018-12-19T17:52:59.810Z,99901.98
2018-12-19T17:55:29.258Z,99905.76
2018-12-19T17:57:58.676Z,99901.66
2018-12-19T18:00:28.531Z,99902.55
2018-12-19T18:02:57.976Z,99905.27
2018-12-19T18:05:28.060Z,99907.22
2018-12-19T18:07:58.043Z,99912.80
2018-12-19T18:10:28.620Z,99909.11
2018-12-19T18:12:58.038Z,99901.95
2018-12-19T18:15:27.645Z,99896.31
2018-12-19T18:17:57.031Z,99891.75
2018-12-19T18:20:26.988Z,99895.53
2018-12-19T18:22:56.541Z,99893.19
2018-12-19T18:25:25.952Z,99894.36
2018-12-19T18:27:56.173Z,99897.59
2018-12-19T18:30:30.864Z,99893.78
2018-12-19T18:33:00.852Z,99902.58
2018-12-19T18:35:30.531Z,99888.56
2018-12-19T18:37:59.900Z,99896.67
2018-12-19T18:40:29.462Z,99890.96
2018-12-19T18:42:59.105Z,99901.61
2018-12-19T18:45:28.797Z,99895.12
2018-12-19T18:47:58.311Z,99887.10
2018-12-19T18:50:28.088Z,99884.45
2018-12-19T18:52:57.626Z,99890.38
2018-12-19T18:55:27.157Z,99894.47
2018-12-19T18:57:57.125Z,99894.39
2018-12-19T19:00:34.823Z,99887.60
2018-12-19T19:03:04.543Z,99877.92
2018-12-19T19:05:34.350Z,99884.11
2018-12-19T19:08:06.170Z,99876.97
2018-12-19T19:10:36.807Z,99875.80
2018-12-19T19:13:06.473Z,99866.01
2018-12-19T19:15:36.112Z,99862.92
2018-12-19T19:18:05.482Z,99868.25
2018-12-19T19:20:34.870Z,99863.23
2018-12-19T19:23:04.336Z,99873.52
2018-12-19T19:25:33.920Z,99872.63
2018-12-19T19:28:03.251Z,99869.94
2018-12-19T19:30:32.718Z,99874.80
2018-12-19T19:33:02.210Z,99875.57
2018-12-19T19:35:37.228Z,99866.07
2018-12-19T19:38:06.588Z,99858.08
2018-12-19T19:40:36.145Z,99864.65
2018-12-19T19:43:05.689Z,99862.59
2018-12-19T19:45:47.700Z,99854.13
2018-12-19T19:48:17.494Z,99853.94
2018-12-19T19:50:46.915Z,99849.01
2018-12-19T19:53:16.471Z,99849.34
2018-12-19T19:55:46.181Z,99857.83
2018-12-19T19:58:15.666Z,99864.13
2018-12-19T20:00:45.097Z,99853.88
2018-12-19T20:03:14.563Z,99843.98
2018-12-19T20:05:44.508Z,99843.22
2018-12-19T20:08:14.089Z,99847.39
2018-12-19T20:10:43.573Z,99851.59
2018-12-19T20:13:13.079Z,99850.43
2018-12-19T20:15:42.670Z,99853.97
2018-12-19T20:18:13.493Z,99858.83
2018-12-19T20:20:43.022Z,99855.14
2018-12-19T20:23:12.627Z,99861.44
2018-12-19T20:25:42.182Z,99847.59
2018-12-19T20:28:11.645Z,99855.45
2018-12-19T20:30:41.160Z,99847.31
2018-12-19T20:33:10.730Z,99847.25
2018-12-19T20:35:40.374Z,99834.18
2018-12-19T20:38:09.957Z,99833.81
2018-12-19T20:40:39.460Z,99839.09
2018-12-19T20:43:09.100Z,99829.20
2018-12-19T20:45:38.651Z,99829.72
2018-12-19T20:48:08.237Z,99830.58
2018-12-19T20:50:37.685Z,99826.63
2018-12-19T20:53:07.210Z,99827.85
2018-12-19T20:55:37.591Z,99818.89
2018-12-19T20:58:07.153Z,99828.23
2018-12-19T21:00:36.734Z,99825.99
2018-12-19T21:03:06.692Z,99827.98
2018-12-19T21:05:36.230Z,99823.33
2018-12-19T21:08:05.699Z,99814.61
2018-12-19T21:10:35.299Z,99801.23
2018-12-19T21:13:04.808Z,99801.23
2018-12-19T21:15:34.252Z,99804.42
2018-12-19T21:19:06.515Z,99791.11
2018-12-19T21:21:35.964Z,99802.97
2018-12-19T21:24:05.492Z,99804.43
2018-12-19T21:26:34.996Z,99806.18
2018-12-19T21:29:04.810Z,99804.72
2018-12-19T21:31:34.581Z,99817.96
2018-12-19T21:34:04.190Z,99813.22
2018-12-19T21:36:35.209Z,99820.50
2018-12-19T21:39:08.017Z,99815.84
2018-12-19T21:41:37.600Z,99809.42
2018-12-19T21:44:07.395Z,99824.31
2018-12-19T21:46:37.111Z,99835.00
2018-12-19T21:49:06.959Z,99834.60
2018-12-19T21:51:36.604Z,99825.20
2018-12-19T21:54:06.200Z,99828.28
2018-12-19T21:56:35.838Z,99831.56
2018-12-19T21:59:05.431Z,99827.63
2018-12-19T22:01:35.287Z,99833.70
2018-12-19T22:04:05.263Z,99823.71
2018-12-19T22:06:35.025Z,99821.86
2018-12-19T22:09:08.990Z,99809.30
2018-12-19T22:11:38.701Z,99823.91
2018-12-19T22:14:08.482Z,99827.22
2018-12-19T22:16:43.247Z,99821.20
2018-12-19T22:19:12.914Z,99808.92
2018-12-19T22:21:43.716Z,99801.15
2018-12-19T22:24:13.491Z,99800.39
2018-12-19T22:26:43.064Z,99806.87
2018-12-19T22:29:12.933Z,99812.55
2018-12-19T22:31:42.554Z,99804.27
2018-12-19T22:34:12.431Z,99802.30
2018-12-19T22:36:42.081Z,99809.79
2018-12-19T22:39:16.028Z,99799.53
2018-12-19T22:41:45.615Z,99795.30
2018-12-19T22:44:15.359Z,99799.34
2018-12-19T22:46:45.127Z,99803.41
2018-12-19T22:49:14.768Z,99799.34
2018-12-19T22:51:46.112Z,99801.56
2018-12-19T22:54:15.839Z,99809.19
2018-12-19T22:56:45.693Z,99801.20
2018-12-19T22:59:15.259Z,99798.95
2018-12-19T23:01:50.104Z,99806.41
2018-12-19T23:04:20.035Z,99807.14
2018-12-19T23:06:49.684Z,99800.10
2018-12-19T23:09:19.426Z,99808.26
2018-12-19T23:11:49.348Z,99798.17
2018-12-19T23:14:18.916Z,99797.67
2018-12-19T23:16:48.583Z,99800.52
2018-12-19T23:19:18.222Z,99795.88
2018-12-19T23:21:47.863Z,99798.36
2018-12-19T23:24:17.393Z,99796.42
2018-12-19T23:26:47.212Z,99799.47
2018-12-19T23:29:17.009Z,99801.23
2018-12-19T23:31:46.644Z,99787.70
2018-12-19T23:34:16.243Z,99788.73
2018-12-19T23:36:45.824Z,99780.59
2018-12-19T23:39:15.454Z,99770.64
2018-12-19T23:41:44.968Z,99768.13
2018-12-19T23:44:22.549Z,99764.77
2018-12-19T23:46:50.613Z,99765.92
2018-12-19T23:49:20.354Z,99761.59
2018-12-19T23:51:50.208Z,99745.92
2018-12-19T23:54:19.869Z,99749.59
2018-12-19T23:56:49.582Z,99777.92
2018-12-19T23:59:19.243Z,99775.73
